createdAt,value
2018-04-12T00:02:20.486Z,6.00
2018-04-12T00:04:51.252Z,6.10
2018-04-12T00:07:19.655Z,7.40
2018-04-12T00:09:48.039Z,8.48
2018-04-12T00:12:16.876Z,7.40
2018-04-12T00:14:45.216Z,7.53
2018-04-12T00:17:13.561Z,6.05
2018-04-12T00:19:41.961Z,7.10
2018-04-12T00:22:10.306Z,5.00
2018-04-12T00:24:38.663Z,7.40
2018-04-12T00:27:07.388Z,6.53
2018-04-12T00:29:35.796Z,6.25
2018-04-12T00:32:04.204Z,7.30
2018-04-12T00:34:32.551Z,6.65
2018-04-12T00:37:00.899Z,7.72
2018-04-12T00:39:29.295Z,7.25
2018-04-12T00:41:57.667Z,6.12
2018-04-12T00:44:26.162Z,6.75
2018-04-12T00:46:54.522Z,7.32
2018-04-12T00:49:23.434Z,7.40
2018-04-12T00:51:51.801Z,6.45
2018-04-12T00:54:20.245Z,6.43
2018-04-12T00:56:49.878Z,9.00
2018-04-12T00:59:18.274Z,7.10
2018-04-12T01:01:46.612Z,6.15
2018-04-12T01:04:15.420Z,7.40
2018-04-12T01:06:43.763Z,6.62
2018-04-12T01:09:12.150Z,7.32
2018-04-12T01:11:40.632Z,6.47
2018-04-12T01:14:09.494Z,6.62
2018-04-12T01:16:37.866Z,5.97
2018-04-12T01:19:07.093Z,7.22
2018-04-12T01:21:35.868Z,7.03
2018-04-12T01:24:04.197Z,8.13
2018-04-12T01:26:32.572Z,7.10
2018-04-12T01:29:01.316Z,6.32
2018-04-12T01:31:29.682Z,6.60
2018-04-12T01:33:58.161Z,6.68
2018-04-12T01:36:26.653Z,7.22
2018-04-12T01:38:54.992Z,5.50
2018-04-12T01:41:23.993Z,5.37
2018-04-12T01:43:52.367Z,7.10
2018-04-12T01:46:20.790Z,6.20
2018-04-12T01:48:49.419Z,7.35
2018-04-12T01:51:17.754Z,6.62
2018-04-12T01:53:46.089Z,6.05
2018-04-12T01:56:15.555Z,6.03
2018-04-12T01:58:43.929Z,7.78
2018-04-12T02:01:12.251Z,5.75
2018-04-12T02:03:41.675Z,6.10
2018-04-12T02:06:10.074Z,5.95
2018-04-12T02:08:38.407Z,6.75
2018-04-12T02:11:06.923Z,7.70
2018-04-12T02:13:35.269Z,8.43
2018-04-12T02:16:03.595Z,6.65
2018-04-12T02:18:32.637Z,6.60
2018-04-12T02:21:02.910Z,7.22
2018-04-12T02:23:31.291Z,8.60
2018-04-12T02:26:00.574Z,6.90
2018-04-12T02:28:28.944Z,7.40
2018-04-12T02:30:57.828Z,6.82
2018-04-12T02:33:26.409Z,5.82
2018-04-12T02:35:54.748Z,7.82
2018-04-12T02:38:23.336Z,9.15
2018-04-12T02:40:51.754Z,6.60
2018-04-12T02:43:20.168Z,7.40
2018-04-12T02:45:48.740Z,7.87
2018-04-12T02:48:17.360Z,8.07
2018-04-12T02:50:45.696Z,8.50
2018-04-12T02:53:14.957Z,6.60
2018-04-12T02:55:44.854Z,7.12
2018-04-12T02:58:13.228Z,7.35
2018-04-12T03:00:41.607Z,7.10
2018-04-12T03:03:10.076Z,8.43
2018-04-12T03:05:38.410Z,7.22
2018-04-12T03:08:06.781Z,7.90
2018-04-12T03:10:35.126Z,8.88
2018-04-12T03:13:03.501Z,8.57
2018-04-12T03:15:31.849Z,7.97
2018-04-12T03:18:00.219Z,6.50
2018-04-12T03:20:28.596Z,7.20
2018-04-12T03:22:57.009Z,9.05
2018-04-12T03:25:26.859Z,8.98
2018-04-12T03:27:55.188Z,8.32
2018-04-12T03:30:23.643Z,7.93
2018-04-12T03:32:52.384Z,7.55
2018-04-12T03:35:21.015Z,7.80
2018-04-12T03:37:49.399Z,8.38
2018-04-12T03:40:18.227Z,8.77
2018-04-12T03:42:46.586Z,7.30
2018-04-12T03:45:14.950Z,9.00
2018-04-12T03:47:43.813Z,8.02
2018-04-12T03:50:12.173Z,9.43
2018-04-12T03:52:40.495Z,8.77
2018-04-12T03:55:09.727Z,9.02
2018-04-12T03:57:38.066Z,10.25
2018-04-12T04:00:06.464Z,10.57
2018-04-12T04:02:34.860Z,9.02
2018-04-12T04:05:05.040Z,9.45
2018-04-12T04:07:33.364Z,10.10
2018-04-12T04:10:01.815Z,10.23
2018-04-12T04:12:31.143Z,8.60
2018-04-12T04:18:12.242Z,9.95
2018-04-12T04:20:52.436Z,9.75
2018-04-12T04:23:20.713Z,8.48
2018-04-12T04:25:49.239Z,9.45
2018-04-12T04:28:18.967Z,9.93
2018-04-12T04:30:47.490Z,9.38
2018-04-12T04:33:16.005Z,10.20
2018-04-12T04:35:44.533Z,12.18
2018-04-12T04:38:12.877Z,9.93
2018-04-12T04:40:41.222Z,9.95
2018-04-12T04:43:10.526Z,9.80
2018-04-12T04:45:38.867Z,9.70
2018-04-12T04:48:07.209Z,9.07
2018-04-12T04:50:36.573Z,10.23
2018-04-12T04:53:05.980Z,9.02
2018-04-12T04:55:34.358Z,9.65
2018-04-12T04:58:02.766Z,10.07
2018-04-12T05:00:31.116Z,8.95
2018-04-12T05:02:59.599Z,9.23
2018-04-12T05:05:28.183Z,10.93
2018-04-12T05:07:56.559Z,9.85
2018-04-12T05:10:24.963Z,10.43
2018-04-12T05:12:53.389Z,9.82
2018-04-12T05:15:22.113Z,9.13
2018-04-12T05:17:50.552Z,9.85
2018-04-12T05:20:19.051Z,8.18
2018-04-12T05:22:47.403Z,8.15
2018-04-12T05:25:15.774Z,9.75
2018-04-12T05:27:44.314Z,9.55
2018-04-12T05:30:13.472Z,8.80
2018-04-12T05:32:41.827Z,8.90
2018-04-12T05:35:10.689Z,8.70
2018-04-12T05:37:39.038Z,10.65
2018-04-12T05:40:07.412Z,10.00
2018-04-12T05:42:35.819Z,7.62
2018-04-12T05:45:04.346Z,7.85
2018-04-12T05:47:32.790Z,9.82
2018-04-12T05:50:02.098Z,7.28
2018-04-12T05:52:30.580Z,8.68
2018-04-12T05:54:59.161Z,8.52
2018-04-12T05:57:27.827Z,8.82
2018-04-12T05:59:58.577Z,6.78
2018-04-12T06:02:26.952Z,9.63
2018-04-12T06:04:55.561Z,8.68
2018-04-12T06:07:24.111Z,8.25
2018-04-12T06:09:52.497Z,8.63
2018-04-12T06:12:21.297Z,6.05
2018-04-12T06:14:50.770Z,8.02
2018-04-12T06:17:19.162Z,7.70
2018-04-12T06:19:47.936Z,8.38
2018-04-12T06:22:16.331Z,8.52
2018-04-12T06:24:44.737Z,6.87
2018-04-12T06:27:13.193Z,8.52
2018-04-12T06:29:41.528Z,8.05
2018-04-12T06:32:10.033Z,8.05
2018-04-12T06:34:39.606Z,8.77
2018-04-12T06:37:07.973Z,8.75
2018-04-12T06:39:36.331Z,6.80
2018-04-12T06:42:05.658Z,8.05
2018-04-12T06:44:34.096Z,8.00
2018-04-12T06:47:02.561Z,9.07
2018-04-12T06:49:31.800Z,7.80
2018-04-12T06:52:00.177Z,10.05
2018-04-12T06:54:28.750Z,8.70
2018-04-12T06:56:57.252Z,7.40
2018-04-12T06:59:25.707Z,7.82
2018-04-12T07:01:54.151Z,8.35
2018-04-12T07:04:23.741Z,8.52
2018-04-12T07:06:52.084Z,8.40
2018-04-12T07:09:20.665Z,7.70
2018-04-12T07:11:49.687Z,8.48
2018-04-12T07:14:18.311Z,8.45
2018-04-12T07:16:47.656Z,8.93
2018-04-12T07:19:16.357Z,7.68
2018-04-12T07:21:44.675Z,8.20
2018-04-12T07:24:13.187Z,7.75
2018-04-12T07:26:42.605Z,9.75
2018-04-12T07:29:10.922Z,9.38
2018-04-12T07:31:39.275Z,9.93
2018-04-12T07:34:08.541Z,8.65
2018-04-12T07:36:36.892Z,8.52
2018-04-12T07:39:06.162Z,9.48
2018-04-12T07:41:34.688Z,9.38
2018-04-12T07:44:08.801Z,10.85
2018-04-12T07:46:37.209Z,11.38
2018-04-12T07:49:05.745Z,9.68
2018-04-12T07:51:34.143Z,10.35
2018-04-12T07:54:02.715Z,10.50
2018-04-12T07:56:31.462Z,11.50
2018-04-12T07:58:59.937Z,11.70
2018-04-12T08:01:29.283Z,11.05
2018-04-12T08:03:57.950Z,9.90
2018-04-12T08:06:26.815Z,11.00
2018-04-12T08:08:56.436Z,10.38
2018-04-12T08:11:25.050Z,11.05
2018-04-12T08:13:53.430Z,11.65
2018-04-12T08:16:22.267Z,10.43
2018-04-12T08:18:51.050Z,10.63
2018-04-12T08:21:19.539Z,10.35
2018-04-12T08:23:48.255Z,9.80
2018-04-12T08:26:16.800Z,11.73
2018-04-12T08:28:45.157Z,11.18
2018-04-12T08:31:13.565Z,11.70
2018-04-12T08:33:41.934Z,10.75
2018-04-12T08:36:10.442Z,11.43
2018-04-12T08:38:38.812Z,10.77
2018-04-12T08:41:07.259Z,11.55
2018-04-12T08:43:35.722Z,10.45
2018-04-12T08:46:04.192Z,11.25
2018-04-12T08:48:32.532Z,10.15
2018-04-12T08:51:01.052Z,10.05
2018-04-12T08:53:30.578Z,9.98
2018-04-12T08:55:59.088Z,11.30
2018-04-12T08:58:27.498Z,9.75
2018-04-12T09:00:56.072Z,10.75
2018-04-12T09:03:24.581Z,11.82
2018-04-12T09:05:53.099Z,11.80
2018-04-12T09:08:21.570Z,11.48
2018-04-12T09:10:50.279Z,10.90
2018-04-12T09:13:18.827Z,10.90
2018-04-12T09:15:48.299Z,10.75
2018-04-12T09:18:16.748Z,11.15
2018-04-12T09:20:45.161Z,10.00
2018-04-12T09:23:13.559Z,10.70
2018-04-12T09:25:42.315Z,9.38
2018-04-12T09:28:10.794Z,11.70
2018-04-12T09:30:39.183Z,10.20
2018-04-12T09:33:07.554Z,11.48
2018-04-12T09:35:35.959Z,8.77
2018-04-12T09:38:04.358Z,12.07
2018-04-12T09:40:32.706Z,11.57
2018-04-12T09:43:01.117Z,10.47
2018-04-12T09:45:29.599Z,10.90
2018-04-12T09:47:57.960Z,10.57
2018-04-12T09:50:26.361Z,12.23
2018-04-12T09:52:54.833Z,11.03
2018-04-12T09:55:23.414Z,10.50
2018-04-12T09:57:52.373Z,10.33
2018-04-12T10:00:27.631Z,12.80
2018-04-12T10:02:56.024Z,11.43
2018-04-12T10:05:30.250Z,11.40
2018-04-12T10:10:57.809Z,11.07
2018-04-12T10:13:26.249Z,11.17
2018-04-12T10:15:54.708Z,12.13
2018-04-12T10:18:23.161Z,11.23
2018-04-12T10:20:51.945Z,11.83
2018-04-12T10:23:20.369Z,10.30
2018-04-12T10:25:49.868Z,10.40
2018-04-12T10:28:18.474Z,10.80
2018-04-12T10:30:47.092Z,13.00
2018-04-12T10:33:15.540Z,12.93
2018-04-12T10:35:44.801Z,11.93
2018-04-12T10:38:13.165Z,12.63
2018-04-12T10:40:42.364Z,13.47
2018-04-12T10:43:10.706Z,13.60
2018-04-12T10:45:39.068Z,11.90
2018-04-12T10:48:07.439Z,10.20
2018-04-12T10:50:35.794Z,12.50
2018-04-12T10:53:04.189Z,14.50
2018-04-12T10:55:32.964Z,12.20
2018-04-12T10:58:01.313Z,13.60
2018-04-12T11:00:29.810Z,12.50
2018-04-12T11:02:58.201Z,11.80
2018-04-12T11:05:26.547Z,12.80
2018-04-12T11:07:55.009Z,12.83
2018-04-12T11:10:23.396Z,14.30
2018-04-12T11:12:52.314Z,14.00
2018-04-12T11:15:20.700Z,13.30
2018-04-12T11:17:49.304Z,12.67
2018-04-12T11:20:17.667Z,13.07
2018-04-12T11:22:46.205Z,11.43
2018-04-12T11:25:15.238Z,11.67
2018-04-12T11:27:43.693Z,12.10
2018-04-12T11:30:12.090Z,12.07
2018-04-12T11:32:40.498Z,13.23
2018-04-12T11:35:09.008Z,12.37
2018-04-12T11:37:37.316Z,13.83
2018-04-12T11:40:05.771Z,12.37
2018-04-12T11:42:34.239Z,14.03
2018-04-12T11:45:02.603Z,14.90
2018-04-12T11:47:31.106Z,14.27
2018-04-12T11:49:59.480Z,12.63
2018-04-12T11:52:27.819Z,14.97
2018-04-12T11:54:56.234Z,16.07
2018-04-12T11:57:24.606Z,15.80
2018-04-12T11:59:53.323Z,15.60
2018-04-12T12:02:21.898Z,15.30
2018-04-12T12:04:50.434Z,15.60
2018-04-12T12:07:18.905Z,16.47
2018-04-12T12:09:47.887Z,15.97
2018-04-12T12:12:16.411Z,18.80
2018-04-12T12:14:44.862Z,14.87
2018-04-12T12:17:13.647Z,16.70
2018-04-12T12:19:42.038Z,17.07
2018-04-12T12:22:10.387Z,15.87
2018-04-12T12:24:38.987Z,16.40
2018-04-12T12:27:07.683Z,17.23
2018-04-12T12:29:36.040Z,15.73
2018-04-12T12:32:05.258Z,14.33
2018-04-12T12:34:34.334Z,14.10
2018-04-12T12:37:02.720Z,14.67
2018-04-12T12:39:31.627Z,16.70
2018-04-12T12:42:00.018Z,15.60
2018-04-12T12:44:28.669Z,14.67
2018-04-12T12:46:57.175Z,19.60
2018-04-12T12:49:25.755Z,16.33
2018-04-12T12:51:54.300Z,16.73
2018-04-12T12:54:23.469Z,15.73
2018-04-12T12:56:52.165Z,14.27
2018-04-12T12:59:20.697Z,16.77
2018-04-12T13:01:49.189Z,15.90
2018-04-12T13:04:17.607Z,17.10
2018-04-12T13:06:46.078Z,17.73
2018-04-12T13:09:15.122Z,15.80
2018-04-12T13:11:43.475Z,17.77
2018-04-12T13:14:11.841Z,16.50
2018-04-12T13:16:40.548Z,17.37
2018-04-12T13:19:09.159Z,15.60
2018-04-12T13:21:37.577Z,16.97
2018-04-12T13:24:06.083Z,17.97
2018-04-12T13:26:34.478Z,15.13
2018-04-12T13:29:02.824Z,14.43
2018-04-12T13:31:31.256Z,14.23
2018-04-12T13:33:59.620Z,14.70
2018-04-12T13:36:28.033Z,14.60
2018-04-12T13:38:57.444Z,15.20
2018-04-12T13:41:25.829Z,14.60
2018-04-12T13:43:54.292Z,15.20
2018-04-12T13:46:23.620Z,16.45
2018-04-12T13:48:52.054Z,14.95
2018-04-12T13:51:20.550Z,15.30
2018-04-12T13:53:49.768Z,14.57
2018-04-12T13:56:18.946Z,15.30
2018-04-12T13:58:47.508Z,15.48
2018-04-12T14:01:16.447Z,15.38
2018-04-12T14:03:44.918Z,14.00
2018-04-12T14:06:13.303Z,15.23
2018-04-12T14:08:41.775Z,16.35
2018-04-12T14:11:10.238Z,12.15
2018-04-12T14:13:38.583Z,14.20
2018-04-12T14:16:07.740Z,15.65
2018-04-12T14:18:36.173Z,12.75
2018-04-12T14:21:04.562Z,16.23
2018-04-12T14:23:33.647Z,13.95
2018-04-12T14:26:02.044Z,16.23
2018-04-12T14:28:30.511Z,17.15
2018-04-12T14:30:59.667Z,15.38
2018-04-12T14:33:28.314Z,15.95
2018-04-12T14:35:56.809Z,15.30
2018-04-12T14:38:25.471Z,12.95
2018-04-12T14:40:54.191Z,13.23
2018-04-12T14:43:22.769Z,14.57
2018-04-12T14:45:51.561Z,14.48
2018-04-12T14:48:20.115Z,14.48
2018-04-12T14:50:48.559Z,16.62
2018-04-12T14:53:17.408Z,14.50
2018-04-12T14:55:45.926Z,12.98
2018-04-12T14:58:14.347Z,15.52
2018-04-12T15:00:44.252Z,13.25
2018-04-12T15:03:12.670Z,13.60
2018-04-12T15:05:41.028Z,13.60
2018-04-12T15:08:10.321Z,13.48
2018-04-12T15:10:38.678Z,11.73
2018-04-12T15:13:07.136Z,13.77
2018-04-12T15:15:36.274Z,14.80
2018-04-12T15:18:04.684Z,14.20
2018-04-12T15:20:33.092Z,15.98
2018-04-12T15:23:01.590Z,13.02
2018-04-12T15:25:30.058Z,15.98
2018-04-12T15:27:58.441Z,13.38
2018-04-12T15:30:27.120Z,15.48
2018-04-12T15:32:55.597Z,15.60
2018-04-12T15:35:23.965Z,13.50
2018-04-12T15:37:52.953Z,13.05
2018-04-12T15:40:21.353Z,13.10
2018-04-12T15:42:49.735Z,12.70
2018-04-12T15:45:19.075Z,12.65
2018-04-12T15:47:47.587Z,14.10
2018-04-12T15:50:16.338Z,10.30
2018-04-12T15:52:45.016Z,11.57
2018-04-12T15:55:17.814Z,11.63
2018-04-12T15:57:47.243Z,12.55
2018-04-12T16:00:15.746Z,12.07
2018-04-12T16:02:44.116Z,12.65
2018-04-12T16:05:12.521Z,12.57
2018-04-12T16:07:40.954Z,12.20
2018-04-12T16:10:09.367Z,13.13
2018-04-12T16:12:37.850Z,12.20
2018-04-12T16:15:06.329Z,13.25
2018-04-12T16:17:34.876Z,9.70
2018-04-12T16:20:03.264Z,13.10
2018-04-12T16:22:31.881Z,13.60
2018-04-12T16:25:00.259Z,12.73
2018-04-12T16:27:28.938Z,11.98
2018-04-12T16:29:57.561Z,11.80
2018-04-12T16:32:25.960Z,11.57
2018-04-12T16:34:54.593Z,12.48
2018-04-12T16:37:23.157Z,11.85
2018-04-12T16:39:51.728Z,12.35
2018-04-12T16:42:20.313Z,13.23
2018-04-12T16:44:48.799Z,11.80
2018-04-12T16:47:17.331Z,10.32
2018-04-12T16:49:46.569Z,10.77
2018-04-12T16:52:15.391Z,11.73
2018-04-12T16:54:44.162Z,12.45
2018-04-12T16:57:12.699Z,12.40
2018-04-12T16:59:41.116Z,9.07
2018-04-12T17:02:09.531Z,11.40
2018-04-12T17:04:38.891Z,10.65
2018-04-12T17:07:07.257Z,9.98
2018-04-12T17:09:35.985Z,11.65
2018-04-12T17:12:04.761Z,11.40
2018-04-12T17:14:33.230Z,9.32
2018-04-12T17:17:01.698Z,10.73
2018-04-12T17:19:30.191Z,11.40
2018-04-12T17:21:58.838Z,11.50
2018-04-12T17:24:27.534Z,9.13
2018-04-12T17:26:56.299Z,11.90
2018-04-12T17:29:25.242Z,10.15
2018-04-12T17:31:54.053Z,10.40
2018-04-12T17:34:22.582Z,11.57
2018-04-12T17:36:50.990Z,10.73
2018-04-12T17:39:19.777Z,11.02
2018-04-12T17:41:48.592Z,10.98
2018-04-12T17:44:17.020Z,11.32
2018-04-12T17:46:45.429Z,11.98
2018-04-12T17:49:14.013Z,11.20
2018-04-12T17:51:42.704Z,13.73
2018-04-12T17:54:11.120Z,8.93
2018-04-12T17:56:39.498Z,11.00
2018-04-12T17:59:07.964Z,10.80
2018-04-12T18:01:36.403Z,10.98
2018-04-12T18:04:06.751Z,9.93
2018-04-12T18:06:35.144Z,11.25
2018-04-12T18:09:03.477Z,10.38
2018-04-12T18:11:31.926Z,12.48
2018-04-12T18:14:00.402Z,11.80
2018-04-12T18:16:29.083Z,12.13
2018-04-12T18:18:57.551Z,10.73
2018-04-12T18:21:25.935Z,10.57
2018-04-12T18:23:54.761Z,12.07
2018-04-12T18:26:23.266Z,11.05
2018-04-12T18:28:51.847Z,9.38
2018-04-12T18:31:20.416Z,12.15
2018-04-12T18:33:49.718Z,10.70
2018-04-12T18:36:18.562Z,10.48
2018-04-12T18:38:47.142Z,9.20
2018-04-12T18:41:16.155Z,9.38
2018-04-12T18:43:44.528Z,11.45
2018-04-12T18:46:13.059Z,10.45
2018-04-12T18:48:41.447Z,9.68
2018-04-12T18:51:09.803Z,11.52
2018-04-12T18:53:38.279Z,10.40
2018-04-12T18:56:07.183Z,11.32
2018-04-12T18:58:35.629Z,10.90
2018-04-12T19:01:04.009Z,8.77
2018-04-12T19:03:33.166Z,9.98
2018-04-12T19:06:01.508Z,8.25
2018-04-12T19:08:30.105Z,10.27
2018-04-12T19:10:58.665Z,10.50
2018-04-12T19:13:27.480Z,9.68
2018-04-12T19:15:56.098Z,11.48
2018-04-12T19:18:25.103Z,12.10
2018-04-12T19:20:57.412Z,11.82
2018-04-12T19:23:26.663Z,11.35
2018-04-12T19:25:55.496Z,11.77
2018-04-12T19:28:24.011Z,10.68
2018-04-12T19:30:52.684Z,11.73
2018-04-12T19:33:22.099Z,9.80
2018-04-12T19:35:50.838Z,10.88
2018-04-12T19:38:20.447Z,10.80
2018-04-12T19:40:49.080Z,9.30
2018-04-12T19:43:17.772Z,11.35
2018-04-12T19:45:47.430Z,10.57
2018-04-12T19:48:16.874Z,11.00
2018-04-12T19:50:45.388Z,9.13
2018-04-12T19:53:13.869Z,9.70
2018-04-12T19:55:42.346Z,9.70
2018-04-12T19:58:10.769Z,10.35
2018-04-12T20:00:39.345Z,11.52
2018-04-12T20:03:07.796Z,10.40
2018-04-12T20:05:36.302Z,10.38
2018-04-12T20:08:06.048Z,11.20
2018-04-12T20:10:34.432Z,13.65
2018-04-12T20:13:02.798Z,10.57
2018-04-12T20:15:31.756Z,11.75
2018-04-12T20:18:00.219Z,11.23
2018-04-12T20:20:28.635Z,9.68
2018-04-12T20:22:57.215Z,11.80
2018-04-12T20:25:25.658Z,12.60
2018-04-12T20:27:54.211Z,11.50
2018-04-12T20:30:22.724Z,10.68
2018-04-12T20:32:51.306Z,12.68
2018-04-12T20:35:20.107Z,13.10
2018-04-12T20:37:48.527Z,11.95
2018-04-12T20:40:17.758Z,10.57
2018-04-12T20:42:46.419Z,11.98
2018-04-12T20:45:14.803Z,14.20
2018-04-12T20:47:43.285Z,11.75
2018-04-12T20:50:11.654Z,10.88
2018-04-12T20:52:41.273Z,11.65
2018-04-12T20:55:09.631Z,10.38
2018-04-12T20:57:39.055Z,11.80
2018-04-12T21:00:08.257Z,10.48
2018-04-12T21:02:37.044Z,11.02
2018-04-12T21:05:05.413Z,13.73
2018-04-12T21:07:34.026Z,12.05
2018-04-12T21:10:03.462Z,11.88
2018-04-12T21:12:31.826Z,13.57
2018-04-12T21:15:00.269Z,12.35
2018-04-12T21:17:28.978Z,13.52
2018-04-12T21:19:57.359Z,13.10
2018-04-12T21:22:26.034Z,13.18
2018-04-12T21:24:54.537Z,13.85
2018-04-12T21:27:23.192Z,12.32
2018-04-12T21:29:51.568Z,13.35
2018-04-12T21:32:20.441Z,12.63
2018-04-12T21:34:48.852Z,15.85
2018-04-12T21:37:17.748Z,14.45
2018-04-12T21:39:46.151Z,14.23
2018-04-12T21:42:14.664Z,15.00
2018-04-12T21:44:43.044Z,14.57
2018-04-12T21:47:11.464Z,13.90
2018-04-12T21:49:39.961Z,14.35
2018-04-12T21:52:08.602Z,13.38
2018-04-12T21:54:37.286Z,17.02
2018-04-12T21:57:05.665Z,13.93
2018-04-12T21:59:34.919Z,12.02
2018-04-12T22:02:03.242Z,14.25
2018-04-12T22:04:32.092Z,14.43
2018-04-12T22:07:01.275Z,13.70
2018-04-12T22:09:29.669Z,13.15
2018-04-12T22:11:58.200Z,12.25
2018-04-12T22:14:27.003Z,13.70
2018-04-12T22:16:55.575Z,13.35
2018-04-12T22:19:25.310Z,13.68
2018-04-12T22:21:54.662Z,12.93
2018-04-12T22:24:23.088Z,14.07
2018-04-12T22:26:51.530Z,15.02
2018-04-12T22:29:20.797Z,13.52
2018-04-12T22:31:49.325Z,13.50
2018-04-12T22:34:17.724Z,14.52
2018-04-12T22:36:46.464Z,15.32
2018-04-12T22:39:14.852Z,15.23
2018-04-12T22:41:43.286Z,13.45
2018-04-12T22:44:11.954Z,14.55
2018-04-12T22:46:40.329Z,13.20
2018-04-12T22:49:08.673Z,14.48
2018-04-12T22:51:37.148Z,14.95
2018-04-12T22:54:05.995Z,13.98
2018-04-12T22:56:35.334Z,15.30
2018-04-12T22:59:04.388Z,16.20
2018-04-12T23:01:32.818Z,13.90
2018-04-12T23:04:01.197Z,14.82
2018-04-12T23:06:30.058Z,14.75
2018-04-12T23:08:58.772Z,16.58
2018-04-12T23:11:27.211Z,16.00
2018-04-12T23:13:55.684Z,17.25
2018-04-12T23:16:24.268Z,15.60
2018-04-12T23:18:52.647Z,15.10
2018-04-12T23:21:21.210Z,18.50
2018-04-12T23:23:50.954Z,15.50
2018-04-12T23:37:55.511Z,16.10
2018-04-12T23:40:24.002Z,16.15
2018-04-12T23:42:52.667Z,14.23
2018-04-12T23:45:21.033Z,15.43
2018-04-12T23:47:49.418Z,17.62
2018-04-12T23:50:18.316Z,17.27
2018-04-12T23:52:46.826Z,15.38
2018-04-12T23:55:15.701Z,15.32
2018-04-12T23:57:44.087Z,15.23
